createdAt,value
2022-11-14T00:00:11.892Z,78.35
2022-11-14T00:05:32.613Z,78.18
2022-11-14T00:10:53.260Z,78.42
2022-11-14T00:16:16.974Z,78.33
2022-11-14T00:21:37.004Z,78.33
2022-11-14T00:26:58.145Z,78.60
2022-11-14T00:32:18.559Z,78.38
2022-11-14T00:37:38.779Z,78.25
2022-11-14T00:42:59.313Z,78.40
2022-11-14T00:48:19.406Z,78.35
2022-11-14T00:53:39.833Z,78.44
2022-11-14T00:59:00.419Z,78.42
2022-11-14T01:04:20.750Z,78.48
2022-11-14T01:09:41.129Z,78.41
2022-11-14T01:15:01.458Z,78.68
2022-11-14T01:20:21.842Z,78.95
2022-11-14T01:25:43.301Z,78.80
2022-11-14T01:31:14.205Z,78.95
2022-11-14T01:36:34.423Z,79.02
2022-11-14T01:41:55.991Z,78.98
2022-11-14T01:47:30.888Z,78.95
2022-11-14T01:52:51.189Z,78.99
2022-11-14T01:58:13.133Z,78.90
2022-11-14T02:03:37.967Z,78.69
2022-11-14T02:09:01.368Z,78.55
2022-11-14T02:14:21.846Z,78.51
2022-11-14T02:20:02.254Z,78.47
2022-11-14T02:25:26.318Z,78.38
2022-11-14T02:30:46.626Z,78.53
2022-11-14T02:36:07.505Z,78.54
2022-11-14T02:41:27.760Z,78.43
2022-11-14T02:46:48.142Z,78.50
2022-11-14T02:52:08.549Z,78.48
2022-11-14T02:57:28.619Z,78.44
2022-11-14T03:02:49.100Z,78.42
2022-11-14T03:08:09.195Z,78.44
2022-11-14T03:13:32.742Z,78.30
2022-11-14T03:18:53.453Z,78.36
2022-11-14T03:24:13.715Z,78.41
2022-11-14T03:29:34.336Z,78.20
2022-11-14T03:34:54.637Z,78.26
2022-11-14T03:40:14.717Z,78.57
2022-11-14T03:45:37.543Z,78.19
2022-11-14T03:50:58.525Z,78.49
2022-11-14T03:56:18.945Z,78.17
2022-11-14T04:01:39.503Z,78.14
2022-11-14T04:06:59.969Z,78.17
2022-11-14T04:12:20.220Z,78.00
2022-11-14T04:17:40.914Z,78.28
2022-11-14T04:23:01.076Z,78.15
2022-11-14T04:28:21.390Z,78.09
2022-11-14T04:33:41.714Z,77.83
2022-11-14T04:39:02.242Z,78.17
2022-11-14T04:44:22.653Z,78.25
2022-11-14T04:49:42.958Z,78.02
2022-11-14T04:55:03.514Z,78.10
2022-11-14T05:00:25.022Z,78.23
2022-11-14T05:05:45.691Z,78.18
2022-11-14T05:11:06.652Z,78.14
2022-11-14T05:16:26.981Z,78.35
2022-11-14T05:21:47.380Z,78.04
2022-11-14T05:27:07.673Z,77.88
2022-11-14T05:32:28.161Z,77.98
2022-11-14T05:37:48.491Z,78.05
2022-11-14T05:43:09.286Z,77.87
2022-11-14T05:48:31.024Z,77.96
2022-11-14T05:53:52.507Z,78.12
2022-11-14T05:59:13.184Z,78.15
2022-11-14T06:04:33.840Z,78.38
2022-11-14T06:09:54.338Z,78.30
2022-11-14T06:15:15.396Z,78.34
2022-11-14T06:20:37.165Z,78.69
2022-11-14T06:26:02.405Z,78.40
2022-11-14T06:31:24.442Z,78.29
2022-11-14T06:36:44.702Z,78.49
2022-11-14T06:42:05.245Z,78.47
2022-11-14T06:47:25.685Z,78.58
2022-11-14T06:52:45.858Z,78.56
2022-11-14T06:58:06.138Z,78.49
2022-11-14T07:03:26.654Z,78.41
2022-11-14T07:08:47.680Z,78.49
2022-11-14T07:14:09.784Z,78.67
2022-11-14T07:19:30.431Z,78.49
2022-11-14T07:24:50.916Z,78.51
2022-11-14T07:30:12.264Z,78.72
2022-11-14T07:35:32.299Z,78.48
2022-11-14T07:40:59.967Z,78.63
2022-11-14T07:46:20.949Z,78.65
2022-11-14T07:51:41.427Z,78.37
2022-11-14T07:57:01.781Z,78.49
2022-11-14T08:02:21.958Z,78.60
2022-11-14T08:07:42.990Z,78.66
2022-11-14T08:18:46.291Z,78.20
2022-11-14T08:24:06.885Z,78.38
2022-11-14T08:29:27.220Z,78.27
2022-11-14T08:34:48.196Z,78.53
2022-11-14T08:40:11.129Z,78.34
2022-11-14T08:45:31.535Z,78.38
2022-11-14T08:50:52.086Z,78.40
2022-11-14T08:56:12.437Z,78.17
2022-11-14T09:01:33.175Z,78.04
2022-11-14T09:06:53.718Z,78.19
2022-11-14T09:12:14.292Z,78.02
2022-11-14T09:17:35.410Z,77.83
2022-11-14T09:22:58.948Z,77.47
2022-11-14T09:28:19.447Z,77.47
2022-11-14T09:33:40.529Z,77.44
2022-11-14T09:39:01.140Z,77.70
2022-11-14T09:44:21.689Z,77.39
2022-11-14T09:49:45.637Z,77.35
2022-11-14T09:55:17.644Z,77.22
2022-11-14T10:01:07.895Z,77.25
2022-11-14T10:06:35.305Z,77.05
2022-11-14T10:12:41.106Z,77.03
2022-11-14T10:18:23.760Z,76.85
2022-11-14T10:24:18.456Z,76.77
2022-11-14T10:29:44.974Z,76.73
2022-11-14T10:35:24.590Z,76.65
2022-11-14T10:40:48.460Z,76.40
2022-11-14T10:46:19.855Z,76.53
2022-11-14T10:51:47.052Z,76.20
2022-11-14T10:57:22.493Z,76.34
2022-11-14T11:02:54.862Z,76.30
2022-11-14T11:08:43.801Z,76.08
2022-11-14T11:14:05.189Z,76.15
2022-11-14T11:19:27.709Z,75.98
2022-11-14T11:24:48.198Z,75.85
2022-11-14T11:30:26.484Z,75.94
2022-11-14T11:35:50.529Z,75.90
2022-11-14T11:41:42.413Z,75.83
2022-11-14T11:47:05.027Z,75.78
2022-11-14T11:52:44.467Z,75.75
2022-11-14T11:58:12.105Z,75.71
2022-11-14T12:03:32.508Z,75.42
2022-11-14T12:09:06.824Z,75.68
2022-11-14T12:14:29.879Z,75.66
2022-11-14T12:20:02.334Z,75.62
2022-11-14T12:25:35.289Z,75.56
2022-11-14T12:31:03.725Z,75.72
2022-11-14T12:36:30.482Z,75.54
2022-11-14T12:41:50.851Z,75.69
2022-11-14T12:47:20.331Z,75.69
2022-11-14T12:52:40.768Z,75.64
2022-11-14T12:58:32.861Z,75.63
2022-11-14T13:04:16.088Z,75.43
2022-11-14T13:10:14.076Z,75.65
2022-11-14T13:16:06.041Z,75.61
2022-11-14T13:21:46.246Z,75.58
2022-11-14T13:28:06.015Z,75.22
2022-11-14T13:33:43.056Z,75.29
2022-11-14T13:39:07.057Z,75.11
2022-11-14T13:44:33.400Z,75.44
2022-11-14T13:50:14.450Z,75.44
2022-11-14T13:55:55.103Z,75.44
2022-11-14T14:01:28.317Z,75.58
2022-11-14T14:06:54.712Z,75.38
2022-11-14T14:12:24.159Z,75.37
2022-11-14T14:17:56.785Z,75.39
2022-11-14T14:23:29.381Z,75.32
2022-11-14T14:29:06.313Z,75.15
2022-11-14T14:34:32.122Z,75.13
2022-11-14T14:40:35.721Z,75.09
2022-11-14T14:45:56.462Z,75.27
2022-11-14T14:51:30.610Z,75.17
2022-11-14T14:57:03.585Z,75.24
2022-11-14T15:02:26.064Z,75.32
2022-11-14T15:07:49.584Z,75.29
2022-11-14T15:13:15.928Z,75.29
2022-11-14T15:18:37.780Z,75.51
2022-11-14T15:24:19.898Z,75.51
2022-11-14T15:29:53.390Z,75.52
2022-11-14T15:35:24.940Z,75.54
2022-11-14T15:41:10.747Z,75.71
2022-11-14T15:46:40.822Z,75.66
2022-11-14T15:52:03.817Z,75.88
2022-11-14T15:57:24.656Z,75.88
2022-11-14T16:02:49.635Z,75.87
2022-11-14T16:08:14.152Z,75.89
2022-11-14T16:13:34.897Z,75.84
2022-11-14T16:18:55.455Z,76.06
2022-11-14T16:24:22.509Z,75.99
2022-11-14T16:29:42.876Z,76.20
2022-11-14T16:35:03.566Z,76.01
2022-11-14T16:40:27.873Z,75.64
2022-11-14T16:45:48.524Z,76.12
2022-11-14T16:51:33.007Z,75.91
2022-11-14T16:56:50.146Z,76.04
2022-11-14T17:02:21.073Z,75.72
2022-11-14T17:07:41.430Z,76.07
2022-11-14T17:13:01.745Z,76.11
2022-11-14T17:18:22.126Z,76.02
2022-11-14T17:23:42.329Z,76.24
2022-11-14T17:29:04.121Z,76.16
2022-11-14T17:34:24.699Z,76.26
2022-11-14T17:39:45.168Z,76.21
2022-11-14T17:45:05.983Z,76.11
2022-11-14T17:50:26.504Z,76.18
2022-11-14T17:55:47.143Z,76.32
2022-11-14T18:01:16.895Z,76.45
2022-11-14T18:06:37.206Z,76.35
2022-11-14T18:11:57.801Z,76.35
2022-11-14T18:17:18.679Z,76.26
2022-11-14T18:22:38.984Z,76.23
2022-11-14T18:27:59.240Z,76.35
2022-11-14T18:33:19.579Z,76.50
2022-11-14T18:38:41.264Z,76.59
2022-11-14T18:44:03.775Z,76.30
2022-11-14T18:49:24.307Z,76.20
2022-11-14T18:54:44.923Z,76.40
2022-11-14T19:00:05.981Z,76.16
2022-11-14T19:05:25.958Z,76.31
2022-11-14T19:10:46.784Z,76.24
2022-11-14T19:16:07.718Z,76.30
2022-11-14T19:21:28.912Z,76.46
2022-11-14T19:26:50.201Z,76.70
2022-11-14T19:32:10.223Z,76.68
2022-11-14T19:37:30.649Z,76.58
2022-11-14T19:42:53.824Z,76.56
2022-11-14T19:48:14.569Z,76.65
2022-11-14T19:53:36.915Z,76.55
2022-11-14T19:58:57.329Z,76.54
2022-11-14T20:04:17.584Z,76.92
2022-11-14T20:09:38.159Z,76.73
2022-11-14T20:14:58.803Z,76.70
2022-11-14T20:20:19.570Z,77.07
2022-11-14T20:25:40.582Z,76.87
2022-11-14T20:31:02.723Z,76.96
2022-11-14T20:36:26.118Z,76.84
2022-11-14T20:41:46.772Z,76.78
2022-11-14T20:47:10.977Z,76.47
2022-11-14T20:52:31.835Z,76.39
2022-11-14T20:57:52.417Z,76.58
2022-11-14T21:03:12.708Z,76.67
2022-11-14T21:08:34.911Z,76.41
2022-11-14T21:14:01.740Z,76.37
2022-11-14T21:19:22.841Z,76.17
2022-11-14T21:24:43.438Z,76.15
2022-11-14T21:30:04.323Z,76.27
2022-11-14T21:35:24.806Z,76.20
2022-11-14T21:40:54.431Z,76.03
2022-11-14T21:46:18.526Z,76.34
2022-11-14T21:51:39.085Z,76.43
2022-11-14T21:56:59.515Z,76.24
2022-11-14T22:02:38.180Z,76.28
2022-11-14T22:07:58.542Z,76.32
2022-11-14T22:13:19.043Z,76.19
2022-11-14T22:18:38.966Z,76.27
2022-11-14T22:23:59.618Z,76.05
2022-11-14T22:29:20.043Z,76.19
2022-11-14T22:34:40.294Z,76.07
2022-11-14T22:40:00.749Z,76.18
2022-11-14T22:45:21.427Z,76.07
2022-11-14T22:50:41.477Z,76.02
2022-11-14T22:56:02.916Z,76.04
2022-11-14T23:01:31.837Z,76.30
2022-11-14T23:06:52.020Z,75.76
2022-11-14T23:12:12.129Z,75.88
2022-11-14T23:17:32.650Z,75.86
2022-11-14T23:22:53.047Z,75.71
2022-11-14T23:28:13.360Z,75.76
2022-11-14T23:33:33.894Z,75.71
2022-11-14T23:38:55.349Z,75.92
2022-11-14T23:44:15.791Z,75.72
2022-11-14T23:49:35.873Z,75.95
2022-11-14T23:54:56.068Z,75.78
